EDDW Airport Information

Runway Information
Runway 05 Length 2297 ft width 75 ft
Elevation 0 ft Threshold 0 ft Heading 52
Runway 23 Length 2297 ft Width 75 ft
Elevation 13 ft Threshold 0 ft Heading 232
Runway 09 Length 6693 ft width 148 ft
Elevation 13 ft Threshold 0 ft Heading 88
Runway 27 Length 6693 ft Width 148 ft
Elevation 14 ft Threshold 0 ft Heading 268
Airport Frequencies
Type AFIS Name INFO Frequency 125.1 MHZ
Type APP Name RADAR Frequency 124.8 MHZ
Type ATIS Name ATIS Frequency 117.45 MHZ
Type GND Name GND Frequency 121.75 MHZ
Type TWR Name TWR Frequency 120.325 MHZ
Airport Navaids
Type VOR-DME Name Bremen Frequency 117450 KHZ
Airport Weather Information & NOTAM
ADDS - METARS form results

(0936 UTC 29 May 2020)
Data provider http://aviationweather.gov/metar/data/
 
METAR text: EDDW 290920Z 10005KT 060V160 CAVOK 18/07 Q1030 NOSIG
Conditions at: EDDW (BREMEN , DE) observed 0920 UTC 29 May 2020
Temperature: 18.0°C (64°F)
Dewpoint: 7.0°C (45°F) [RH = 49%]
Pressure (altimeter): 30.41 inches Hg (1030.0 mb)
Winds: from the E (100 degrees) at 6 MPH (5 knots; 2.6 m/s)
Visibility: 6 or more miles (10+ km)
Ceiling: ceiling and visibility are OK
Clouds: unknown
Weather: no significant weather observed at this time

METAR text: EDDW 290850Z 07004KT 020V130 CAVOK 17/07 Q1031 NOSIG
Conditions at: EDDW (BREMEN , DE) observed 0850 UTC 29 May 2020
Temperature: 17.0°C (63°F)
Dewpoint: 7.0°C (45°F) [RH = 52%]
Pressure (altimeter): 30.44 inches Hg (1031.0 mb)
Winds: from the ENE (70 degrees) at 5 MPH (4 knots; 2.1 m/s)
Visibility: 6 or more miles (10+ km)
Ceiling: ceiling and visibility are OK
Clouds: unknown
Weather: no significant weather observed at this time

Forecast for: EDDW (BREMEN , DE)
Text: TAF EDDW 290500Z 2906/3006 06004KT CAVOK
Forecast period: 0600 to 1600 UTC 29 May 2020
Forecast type: FROM: standard forecast or significant change
Winds: from the ENE (60 degrees) at 5 MPH (4 knots; 2.1 m/s)
Visibility: 6 or more miles 10+ km)
Ceiling: unknown
Clouds: missing
Weather: NSW  (no significant weather)
Text: BECMG 2916/2918 03009KT
Forecast period: 1600 to 2000 UTC 29 May 2020
Forecast type: BECOMING: Conditions expected to become as follows by 1800 UTC 29 May 2020
Winds: from the NNE (30 degrees) at 10 MPH (9 knots; 4.6 m/s)
Visibility: 6 or more miles 10+ km)
Ceiling: unknown
Clouds: missing
Weather: NSW  (no significant weather)
Text: BECMG 2920/2922 06004KT
Forecast period: 2000 UTC 29 May 2020 to 0600 UTC 30 May 2020
Forecast type: BECOMING: Conditions expected to become as follows by 2200 UTC 29 May 2020
Winds: from the ENE (60 degrees) at 5 MPH (4 knots; 2.1 m/s)
Visibility: 6 or more miles 10+ km)
Ceiling: unknown
Clouds: missing
Weather: NSW  (no significant weather)